sensor_id;sensor_type;location;lat;lon;timestamp;pressure;altitude;pressure_sealevel;temperature;humidity
56928;BME280;60850;52.502;13.426;2022-12-18T00:01:15;102840.59;;;-3.16;100.00
56928;BME280;60850;52.502;13.426;2022-12-18T00:03:44;102842.78;;;-3.09;100.00
56928;BME280;60850;52.502;13.426;2022-12-18T00:06:11;102850.25;;;-3.00;100.00
56928;BME280;60850;52.502;13.426;2022-12-18T00:08:39;102854.41;;;-2.89;100.00
56928;BME280;60850;52.502;13.426;2022-12-18T00:11:08;102854.50;;;-2.74;100.00
56928;BME280;60850;52.502;13.426;2022-12-18T00:13:35;102852.50;;;-2.79;100.00
56928;BME280;60850;52.502;13.426;2022-12-18T00:16:05;102858.69;;;-2.77;100.00
56928;BME280;60850;52.502;13.426;2022-12-18T00:18:33;102847.13;;;-2.67;100.00
56928;BME280;60850;52.502;13.426;2022-12-18T00:21:02;102845.22;;;-2.69;100.00
56928;BME280;60850;52.502;13.426;2022-12-18T00:23:29;102852.34;;;-2.67;100.00
56928;BME280;60850;52.502;13.426;2022-12-18T00:25:58;102854.66;;;-2.71;100.00
56928;BME280;60850;52.502;13.426;2022-12-18T00:28:26;102847.75;;;-2.99;100.00
56928;BME280;60850;52.502;13.426;2022-12-18T00:31:00;102849.16;;;-3.04;100.00
56928;BME280;60850;52.502;13.426;2022-12-18T00:33:28;102859.69;;;-3.30;100.00
56928;BME280;60850;52.502;13.426;2022-12-18T00:36:00;102857.19;;;-3.69;100.00
56928;BME280;60850;52.502;13.426;2022-12-18T00:38:27;102855.34;;;-4.09;100.00
56928;BME280;60850;52.502;13.426;2022-12-18T00:40:54;102863.28;;;-4.21;100.00
56928;BME280;60850;52.502;13.426;2022-12-18T00:43:21;102855.97;;;-4.13;100.00
56928;BME280;60850;52.502;13.426;2022-12-18T00:45:48;102852.66;;;-4.11;100.00
56928;BME280;60850;52.502;13.426;2022-12-18T00:48:15;102853.47;;;-3.99;100.00
56928;BME280;60850;52.502;13.426;2022-12-18T00:50:43;102851.16;;;-3.81;100.00
56928;BME280;60850;52.502;13.426;2022-12-18T00:53:10;102842.19;;;-3.73;100.00
56928;BME280;60850;52.502;13.426;2022-12-18T00:55:38;102847.25;;;-3.61;100.00
56928;BME280;60850;52.502;13.426;2022-12-18T00:58:05;102834.22;;;-3.61;100.00
56928;BME280;60850;52.502;13.426;2022-12-18T01:00:33;102835.44;;;-3.56;100.00
56928;BME280;60850;52.502;13.426;2022-12-18T01:03:00;102840.25;;;-3.62;100.00
56928;BME280;60850;52.502;13.426;2022-12-18T01:05:28;102836.16;;;-3.58;100.00
56928;BME280;60850;52.502;13.426;2022-12-18T01:07:57;102844.88;;;-3.58;100.00
56928;BME280;60850;52.502;13.426;2022-12-18T01:10:25;102845.84;;;-3.56;100.00
56928;BME280;60850;52.502;13.426;2022-12-18T01:12:52;102852.78;;;-3.83;100.00
56928;BME280;60850;52.502;13.426;2022-12-18T01:15:19;102853.88;;;-3.93;100.00
56928;BME280;60850;52.502;13.426;2022-12-18T01:17:46;102859.09;;;-4.06;100.00
56928;BME280;60850;52.502;13.426;2022-12-18T01:20:14;102866.69;;;-4.09;100.00
56928;BME280;60850;52.502;13.426;2022-12-18T01:22:41;102869.00;;;-4.13;100.00
56928;BME280;60850;52.502;13.426;2022-12-18T01:25:09;102870.50;;;-4.04;100.00
56928;BME280;60850;52.502;13.426;2022-12-18T01:27:37;102875.53;;;-4.07;100.00
56928;BME280;60850;52.502;13.426;2022-12-18T01:30:05;102876.50;;;-4.05;100.00
56928;BME280;60850;52.502;13.426;2022-12-18T01:32:33;102880.31;;;-4.13;100.00
56928;BME280;60850;52.502;13.426;2022-12-18T01:35:00;102879.44;;;-4.00;100.00
56928;BME280;60850;52.502;13.426;2022-12-18T01:37:27;102878.34;;;-3.91;100.00
56928;BME280;60850;52.502;13.426;2022-12-18T01:39:54;102886.75;;;-3.81;100.00
56928;BME280;60850;52.502;13.426;2022-12-18T01:42:23;102889.25;;;-3.96;100.00
56928;BME280;60850;52.502;13.426;2022-12-18T01:45:00;102885.28;;;-4.16;100.00
56928;BME280;60850;52.502;13.426;2022-12-18T01:47:31;102887.50;;;-4.09;100.00
56928;BME280;60850;52.502;13.426;2022-12-18T01:50:03;102884.75;;;-3.99;100.00
56928;BME280;60850;52.502;13.426;2022-12-18T01:52:32;102887.34;;;-3.99;100.00
56928;BME280;60850;52.502;13.426;2022-12-18T01:55:00;102875.00;;;-3.88;100.00
56928;BME280;60850;52.502;13.426;2022-12-18T01:57:30;102882.34;;;-3.82;100.00
56928;BME280;60850;52.502;13.426;2022-12-18T02:00:03;102881.03;;;-3.76;100.00
56928;BME280;60850;52.502;13.426;2022-12-18T02:02:30;102881.94;;;-3.62;100.00
56928;BME280;60850;52.502;13.426;2022-12-18T02:04:58;102893.50;;;-3.58;100.00
56928;BME280;60850;52.502;13.426;2022-12-18T02:07:32;102895.38;;;-3.69;100.00
56928;BME280;60850;52.502;13.426;2022-12-18T02:10:07;102894.19;;;-3.88;100.00
56928;BME280;60850;52.502;13.426;2022-12-18T02:12:43;102887.75;;;-3.93;100.00
56928;BME280;60850;52.502;13.426;2022-12-18T02:15:15;102893.25;;;-3.88;100.00
56928;BME280;60850;52.502;13.426;2022-12-18T02:17:50;102888.53;;;-4.07;100.00
56928;BME280;60850;52.502;13.426;2022-12-18T02:20:23;102889.63;;;-4.03;100.00
56928;BME280;60850;52.502;13.426;2022-12-18T02:23:04;102897.47;;;-3.90;100.00
56928;BME280;60850;52.502;13.426;2022-12-18T02:26:00;102890.75;;;-4.00;100.00
56928;BME280;60850;52.502;13.426;2022-12-18T02:28:36;102891.75;;;-3.98;100.00
56928;BME280;60850;52.502;13.426;2022-12-18T02:31:08;102896.97;;;-3.98;100.00
56928;BME280;60850;52.502;13.426;2022-12-18T02:33:38;102895.28;;;-3.84;100.00
56928;BME280;60850;52.502;13.426;2022-12-18T02:36:08;102901.38;;;-3.83;100.00
56928;BME280;60850;52.502;13.426;2022-12-18T02:38:36;102910.19;;;-3.81;100.00
56928;BME280;60850;52.502;13.426;2022-12-18T02:41:05;102915.16;;;-3.73;100.00
56928;BME280;60850;52.502;13.426;2022-12-18T02:43:32;102913.22;;;-3.75;100.00
56928;BME280;60850;52.502;13.426;2022-12-18T02:46:23;102911.63;;;-3.73;100.00
56928;BME280;60850;52.502;13.426;2022-12-18T02:48:53;102909.19;;;-3.97;100.00
56928;BME280;60850;52.502;13.426;2022-12-18T02:51:29;102914.88;;;-4.02;100.00
56928;BME280;60850;52.502;13.426;2022-12-18T02:54:04;102920.59;;;-4.08;100.00
56928;BME280;60850;52.502;13.426;2022-12-18T02:56:38;102920.59;;;-4.08;100.00
56928;BME280;60850;52.502;13.426;2022-12-18T02:59:13;102913.97;;;-4.03;100.00
56928;BME280;60850;52.502;13.426;2022-12-18T03:01:45;102909.91;;;-3.99;100.00
56928;BME280;60850;52.502;13.426;2022-12-18T03:04:18;102915.03;;;-3.88;100.00
56928;BME280;60850;52.502;13.426;2022-12-18T03:06:49;102913.47;;;-4.10;100.00
56928;BME280;60850;52.502;13.426;2022-12-18T03:09:21;102907.84;;;-4.17;100.00
56928;BME280;60850;52.502;13.426;2022-12-18T03:11:56;102916.72;;;-4.01;100.00
56928;BME280;60850;52.502;13.426;2022-12-18T03:14:45;102912.41;;;-4.01;100.00
56928;BME280;60850;52.502;13.426;2022-12-18T03:17:17;102921.13;;;-4.25;100.00
56928;BME280;60850;52.502;13.426;2022-12-18T03:19:46;102910.63;;;-4.52;100.00
56928;BME280;60850;52.502;13.426;2022-12-18T03:22:15;102914.84;;;-4.54;100.00
56928;BME280;60850;52.502;13.426;2022-12-18T03:24:44;102917.69;;;-4.37;100.00
56928;BME280;60850;52.502;13.426;2022-12-18T03:27:18;102922.13;;;-4.36;100.00
56928;BME280;60850;52.502;13.426;2022-12-18T03:29:49;102920.75;;;-4.56;100.00
56928;BME280;60850;52.502;13.426;2022-12-18T03:32:23;102924.72;;;-4.61;100.00
56928;BME280;60850;52.502;13.426;2022-12-18T03:34:55;102922.28;;;-4.47;100.00
56928;BME280;60850;52.502;13.426;2022-12-18T03:37:25;102923.22;;;-4.33;100.00
56928;BME280;60850;52.502;13.426;2022-12-18T03:39:52;102918.66;;;-4.49;100.00
56928;BME280;60850;52.502;13.426;2022-12-18T03:42:26;102922.44;;;-4.57;100.00
56928;BME280;60850;52.502;13.426;2022-12-18T03:44:59;102917.91;;;-4.96;100.00
56928;BME280;60850;52.502;13.426;2022-12-18T03:47:33;102921.94;;;-5.13;100.00
56928;BME280;60850;52.502;13.426;2022-12-18T03:50:06;102924.38;;;-5.03;100.00
56928;BME280;60850;52.502;13.426;2022-12-18T03:52:40;102916.69;;;-5.01;100.00
56928;BME280;60850;52.502;13.426;2022-12-18T03:55:09;102927.78;;;-5.15;100.00
56928;BME280;60850;52.502;13.426;2022-12-18T03:57:38;102926.34;;;-5.23;100.00
56928;BME280;60850;52.502;13.426;2022-12-18T04:00:09;102940.03;;;-5.26;100.00
56928;BME280;60850;52.502;13.426;2022-12-18T04:02:38;102928.78;;;-5.02;100.00
56928;BME280;60850;52.502;13.426;2022-12-18T04:05:08;102933.16;;;-4.77;100.00
56928;BME280;60850;52.502;13.426;2022-12-18T04:07:38;102923.66;;;-4.88;100.00
56928;BME280;60850;52.502;13.426;2022-12-18T04:10:07;102926.19;;;-5.02;100.00
56928;BME280;60850;52.502;13.426;2022-12-18T04:12:38;102926.44;;;-5.10;100.00
56928;BME280;60850;52.502;13.426;2022-12-18T04:15:06;102924.63;;;-5.00;100.00
56928;BME280;60850;52.502;13.426;2022-12-18T04:17:34;102931.63;;;-5.10;100.00
56928;BME280;60850;52.502;13.426;2022-12-18T04:20:00;102938.75;;;-5.08;100.00
56928;BME280;60850;52.502;13.426;2022-12-18T04:22:28;102937.47;;;-4.89;100.00
56928;BME280;60850;52.502;13.426;2022-12-18T04:24:55;102952.81;;;-4.69;100.00
56928;BME280;60850;52.502;13.426;2022-12-18T04:27:22;102944.25;;;-4.55;100.00
56928;BME280;60850;52.502;13.426;2022-12-18T04:29:51;102945.16;;;-4.54;100.00
56928;BME280;60850;52.502;13.426;2022-12-18T04:32:18;102941.13;;;-4.37;100.00
56928;BME280;60850;52.502;13.426;2022-12-18T04:34:45;102935.66;;;-4.29;100.00
56928;BME280;60850;52.502;13.426;2022-12-18T04:37:12;102944.31;;;-4.42;100.00
56928;BME280;60850;52.502;13.426;2022-12-18T04:39:39;102942.13;;;-4.85;100.00
56928;BME280;60850;52.502;13.426;2022-12-18T04:42:06;102962.78;;;-4.87;100.00
56928;BME280;60850;52.502;13.426;2022-12-18T04:44:33;102961.88;;;-4.76;100.00
56928;BME280;60850;52.502;13.426;2022-12-18T04:47:02;102954.31;;;-4.84;100.00
56928;BME280;60850;52.502;13.426;2022-12-18T04:49:29;102951.28;;;-4.90;100.00
56928;BME280;60850;52.502;13.426;2022-12-18T04:51:56;102945.38;;;-4.88;100.00
56928;BME280;60850;52.502;13.426;2022-12-18T04:54:23;102953.13;;;-5.25;100.00
56928;BME280;60850;52.502;13.426;2022-12-18T04:56:50;102952.25;;;-5.48;100.00
56928;BME280;60850;52.502;13.426;2022-12-18T04:59:17;102949.31;;;-5.41;100.00
56928;BME280;60850;52.502;13.426;2022-12-18T05:01:44;102948.38;;;-5.30;100.00
56928;BME280;60850;52.502;13.426;2022-12-18T05:04:12;102949.75;;;-5.23;100.00
56928;BME280;60850;52.502;13.426;2022-12-18T05:06:39;102953.78;;;-5.15;100.00
56928;BME280;60850;52.502;13.426;2022-12-18T05:09:06;102961.25;;;-4.97;100.00
56928;BME280;60850;52.502;13.426;2022-12-18T05:11:34;102967.44;;;-4.94;100.00
56928;BME280;60850;52.502;13.426;2022-12-18T05:14:01;102972.13;;;-5.14;100.00
56928;BME280;60850;52.502;13.426;2022-12-18T05:16:28;102969.63;;;-5.24;100.00
56928;BME280;60850;52.502;13.426;2022-12-18T05:18:55;102966.44;;;-5.08;100.00
56928;BME280;60850;52.502;13.426;2022-12-18T05:21:23;102971.78;;;-5.07;100.00
56928;BME280;60850;52.502;13.426;2022-12-18T05:23:50;102973.50;;;-5.19;100.00
56928;BME280;60850;52.502;13.426;2022-12-18T05:26:18;102988.84;;;-5.45;100.00
56928;BME280;60850;52.502;13.426;2022-12-18T05:28:45;102989.28;;;-5.51;100.00
56928;BME280;60850;52.502;13.426;2022-12-18T05:31:13;102985.03;;;-5.27;100.00
56928;BME280;60850;52.502;13.426;2022-12-18T05:33:40;102997.25;;;-5.14;100.00
56928;BME280;60850;52.502;13.426;2022-12-18T05:36:09;103002.50;;;-4.89;100.00
56928;BME280;60850;52.502;13.426;2022-12-18T05:38:38;102997.84;;;-4.82;100.00
56928;BME280;60850;52.502;13.426;2022-12-18T05:41:07;102991.84;;;-4.81;100.00
56928;BME280;60850;52.502;13.426;2022-12-18T05:43:35;102998.53;;;-4.84;100.00
56928;BME280;60850;52.502;13.426;2022-12-18T05:46:04;102992.28;;;-4.75;100.00
56928;BME280;60850;52.502;13.426;2022-12-18T05:48:32;102995.44;;;-4.67;100.00
56928;BME280;60850;52.502;13.426;2022-12-18T05:51:04;102987.91;;;-4.87;100.00
56928;BME280;60850;52.502;13.426;2022-12-18T05:53:32;102991.31;;;-4.88;100.00
56928;BME280;60850;52.502;13.426;2022-12-18T05:56:02;102995.16;;;-4.95;100.00
56928;BME280;60850;52.502;13.426;2022-12-18T05:58:30;102998.44;;;-4.86;100.00
56928;BME280;60850;52.502;13.426;2022-12-18T06:00:57;102999.44;;;-4.72;100.00
56928;BME280;60850;52.502;13.426;2022-12-18T06:03:24;103003.16;;;-4.68;100.00
56928;BME280;60850;52.502;13.426;2022-12-18T06:05:52;102998.91;;;-4.55;100.00
56928;BME280;60850;52.502;13.426;2022-12-18T06:08:18;103007.81;;;-4.39;100.00
56928;BME280;60850;52.502;13.426;2022-12-18T06:10:50;103013.09;;;-4.26;100.00
56928;BME280;60850;52.502;13.426;2022-12-18T06:13:20;103017.13;;;-4.18;100.00
56928;BME280;60850;52.502;13.426;2022-12-18T06:15:47;103018.38;;;-4.25;100.00
56928;BME280;60850;52.502;13.426;2022-12-18T06:18:14;103012.94;;;-4.53;100.00
56928;BME280;60850;52.502;13.426;2022-12-18T06:20:41;103017.53;;;-4.37;100.00
56928;BME280;60850;52.502;13.426;2022-12-18T06:23:08;103024.84;;;-4.20;100.00
56928;BME280;60850;52.502;13.426;2022-12-18T06:25:37;103021.06;;;-4.11;100.00
56928;BME280;60850;52.502;13.426;2022-12-18T06:28:04;103017.28;;;-4.03;100.00
56928;BME280;60850;52.502;13.426;2022-12-18T06:30:33;103024.63;;;-4.23;100.00
56928;BME280;60850;52.502;13.426;2022-12-18T06:33:00;103035.59;;;-4.15;100.00
56928;BME280;60850;52.502;13.426;2022-12-18T06:35:27;103032.81;;;-4.30;100.00
56928;BME280;60850;52.502;13.426;2022-12-18T06:37:54;103042.72;;;-4.24;100.00
56928;BME280;60850;52.502;13.426;2022-12-18T06:40:21;103037.75;;;-4.21;100.00
56928;BME280;60850;52.502;13.426;2022-12-18T06:42:48;103046.09;;;-4.13;100.00
56928;BME280;60850;52.502;13.426;2022-12-18T06:45:15;103052.66;;;-4.07;100.00
56928;BME280;60850;52.502;13.426;2022-12-18T06:47:44;103065.88;;;-4.40;100.00
56928;BME280;60850;52.502;13.426;2022-12-18T06:50:12;103066.94;;;-4.62;100.00
56928;BME280;60850;52.502;13.426;2022-12-18T06:52:39;103044.88;;;-4.55;100.00
56928;BME280;60850;52.502;13.426;2022-12-18T06:55:07;103058.63;;;-4.45;100.00
56928;BME280;60850;52.502;13.426;2022-12-18T06:57:34;103071.16;;;-4.76;100.00
56928;BME280;60850;52.502;13.426;2022-12-18T07:00:03;103078.75;;;-4.90;100.00
56928;BME280;60850;52.502;13.426;2022-12-18T07:02:31;103081.22;;;-4.80;100.00
56928;BME280;60850;52.502;13.426;2022-12-18T07:05:00;103079.66;;;-4.78;100.00
56928;BME280;60850;52.502;13.426;2022-12-18T07:07:27;103070.16;;;-4.78;100.00
56928;BME280;60850;52.502;13.426;2022-12-18T07:09:54;103060.28;;;-4.70;100.00
56928;BME280;60850;52.502;13.426;2022-12-18T07:12:21;103055.53;;;-4.64;100.00
56928;BME280;60850;52.502;13.426;2022-12-18T07:14:48;103056.63;;;-4.49;100.00
56928;BME280;60850;52.502;13.426;2022-12-18T07:17:15;103064.09;;;-4.42;100.00
56928;BME280;60850;52.502;13.426;2022-12-18T07:19:42;103063.84;;;-4.45;100.00
56928;BME280;60850;52.502;13.426;2022-12-18T07:22:10;103071.34;;;-4.61;100.00
56928;BME280;60850;52.502;13.426;2022-12-18T07:24:37;103066.41;;;-5.05;100.00
56928;BME280;60850;52.502;13.426;2022-12-18T07:27:04;103078.06;;;-5.00;100.00
56928;BME280;60850;52.502;13.426;2022-12-18T07:29:32;103074.22;;;-4.93;100.00
56928;BME280;60850;52.502;13.426;2022-12-18T07:31:58;103069.91;;;-4.81;100.00
56928;BME280;60850;52.502;13.426;2022-12-18T07:34:26;103069.09;;;-4.68;100.00
56928;BME280;60850;52.502;13.426;2022-12-18T07:36:53;103072.06;;;-4.75;100.00
56928;BME280;60850;52.502;13.426;2022-12-18T07:39:21;103083.63;;;-5.07;100.00
56928;BME280;60850;52.502;13.426;2022-12-18T07:41:48;103081.44;;;-5.24;100.00
56928;BME280;60850;52.502;13.426;2022-12-18T07:44:35;103071.72;;;-5.15;100.00
56928;BME280;60850;52.502;13.426;2022-12-18T07:47:03;103068.66;;;-5.09;100.00
56928;BME280;60850;52.502;13.426;2022-12-18T07:49:30;103078.16;;;-4.86;100.00
56928;BME280;60850;52.502;13.426;2022-12-18T07:51:57;103074.22;;;-5.05;100.00
56928;BME280;60850;52.502;13.426;2022-12-18T07:54:26;103078.06;;;-5.00;100.00
56928;BME280;60850;52.502;13.426;2022-12-18T07:56:53;103073.84;;;-4.74;100.00
56928;BME280;60850;52.502;13.426;2022-12-18T07:59:20;103070.00;;;-4.56;100.00
56928;BME280;60850;52.502;13.426;2022-12-18T08:01:47;103068.44;;;-4.77;100.00
56928;BME280;60850;52.502;13.426;2022-12-18T08:04:14;103076.16;;;-4.79;100.00
56928;BME280;60850;52.502;13.426;2022-12-18T08:06:41;103074.31;;;-5.03;100.00
56928;BME280;60850;52.502;13.426;2022-12-18T08:09:09;103079.41;;;-4.81;100.00
56928;BME280;60850;52.502;13.426;2022-12-18T08:11:38;103084.03;;;-5.01;100.00
56928;BME280;60850;52.502;13.426;2022-12-18T08:14:05;103079.31;;;-4.83;100.00
56928;BME280;60850;52.502;13.426;2022-12-18T08:16:32;103075.22;;;-4.56;100.00
56928;BME280;60850;52.502;13.426;2022-12-18T08:18:59;103075.41;;;-4.53;100.00
56928;BME280;60850;52.502;13.426;2022-12-18T08:21:28;103086.25;;;-4.35;100.00
56928;BME280;60850;52.502;13.426;2022-12-18T08:23:58;103095.69;;;-4.49;100.00
56928;BME280;60850;52.502;13.426;2022-12-18T08:26:27;103089.81;;;-4.70;100.00
56928;BME280;60850;52.502;13.426;2022-12-18T08:28:58;103087.78;;;-4.74;100.00
56928;BME280;60850;52.502;13.426;2022-12-18T08:31:26;103087.25;;;-4.93;100.00
56928;BME280;60850;52.502;13.426;2022-12-18T08:33:55;103091.63;;;-4.80;100.00
56928;BME280;60850;52.502;13.426;2022-12-18T08:36:22;103091.38;;;-4.60;100.00
56928;BME280;60850;52.502;13.426;2022-12-18T08:38:50;103092.19;;;-4.73;100.00
56928;BME280;60850;52.502;13.426;2022-12-18T08:41:18;103103.50;;;-4.49;100.00
56928;BME280;60850;52.502;13.426;2022-12-18T08:43:45;103109.59;;;-4.36;100.00
56928;BME280;60850;52.502;13.426;2022-12-18T08:46:36;103114.31;;;-4.31;100.00
56928;BME280;60850;52.502;13.426;2022-12-18T08:49:04;103110.34;;;-4.37;100.00
56928;BME280;60850;52.502;13.426;2022-12-18T08:51:32;103110.94;;;-4.42;100.00
56928;BME280;60850;52.502;13.426;2022-12-18T08:54:00;103103.94;;;-4.43;100.00
56928;BME280;60850;52.502;13.426;2022-12-18T08:56:27;103112.75;;;-4.40;100.00
56928;BME280;60850;52.502;13.426;2022-12-18T08:58:55;103124.97;;;-4.28;100.00
56928;BME280;60850;52.502;13.426;2022-12-18T09:01:22;103129.56;;;-4.12;100.00
56928;BME280;60850;52.502;13.426;2022-12-18T09:03:51;103137.88;;;-4.29;100.00
56928;BME280;60850;52.502;13.426;2022-12-18T09:06:20;103127.41;;;-4.18;100.00
56928;BME280;60850;52.502;13.426;2022-12-18T09:08:48;103123.63;;;-3.98;100.00
56928;BME280;60850;52.502;13.426;2022-12-18T09:11:21;103124.19;;;-4.02;100.00
56928;BME280;60850;52.502;13.426;2022-12-18T09:13:49;103135.84;;;-4.33;100.00
56928;BME280;60850;52.502;13.426;2022-12-18T09:16:16;103131.97;;;-4.38;100.00
56928;BME280;60850;52.502;13.426;2022-12-18T09:18:43;103146.25;;;-4.33;100.00
56928;BME280;60850;52.502;13.426;2022-12-18T09:21:13;103143.63;;;-4.33;100.00
56928;BME280;60850;52.502;13.426;2022-12-18T09:23:42;103140.88;;;-4.11;100.00
56928;BME280;60850;52.502;13.426;2022-12-18T09:26:09;103138.19;;;-3.88;100.00
56928;BME280;60850;52.502;13.426;2022-12-18T09:28:36;103134.09;;;-3.73;100.00
56928;BME280;60850;52.502;13.426;2022-12-18T09:31:05;103138.00;;;-3.41;100.00
56928;BME280;60850;52.502;13.426;2022-12-18T09:33:33;103140.78;;;-3.13;100.00
56928;BME280;60850;52.502;13.426;2022-12-18T09:36:02;103131.78;;;-2.92;100.00
56928;BME280;60850;52.502;13.426;2022-12-18T09:38:30;103138.75;;;-3.30;100.00
56928;BME280;60850;52.502;13.426;2022-12-18T09:41:00;103128.41;;;-3.29;100.00
56928;BME280;60850;52.502;13.426;2022-12-18T09:43:35;103127.03;;;-2.97;100.00
56928;BME280;60850;52.502;13.426;2022-12-18T09:46:06;103116.72;;;-2.69;100.00
56928;BME280;60850;52.502;13.426;2022-12-18T09:48:36;103116.34;;;-2.89;100.00
56928;BME280;60850;52.502;13.426;2022-12-18T09:51:11;103116.72;;;-2.83;100.00
56928;BME280;60850;52.502;13.426;2022-12-18T09:53:43;103123.88;;;-2.80;100.00
56928;BME280;60850;52.502;13.426;2022-12-18T09:56:16;103120.94;;;-2.85;100.00
56928;BME280;60850;52.502;13.426;2022-12-18T09:58:48;103104.97;;;-3.16;100.00
56928;BME280;60850;52.502;13.426;2022-12-18T10:01:21;103110.47;;;-2.98;100.00
56928;BME280;60850;52.502;13.426;2022-12-18T10:03:48;103089.19;;;-3.04;100.00
56928;BME280;60850;52.502;13.426;2022-12-18T10:06:21;103082.97;;;-3.19;100.00
56928;BME280;60850;52.502;13.426;2022-12-18T10:08:57;103071.47;;;-3.10;100.00
56928;BME280;60850;52.502;13.426;2022-12-18T10:11:34;103069.63;;;-3.24;100.00
56928;BME280;60850;52.502;13.426;2022-12-18T10:14:11;103066.03;;;-2.99;100.00
56928;BME280;60850;52.502;13.426;2022-12-18T10:16:45;103069.31;;;-2.76;100.00
56928;BME280;60850;52.502;13.426;2022-12-18T10:19:24;103067.13;;;-2.69;100.00
56928;BME280;60850;52.502;13.426;2022-12-18T10:21:59;103066.84;;;-2.61;100.00
56928;BME280;60850;52.502;13.426;2022-12-18T10:24:33;103084.19;;;-2.61;100.00
56928;BME280;60850;52.502;13.426;2022-12-18T10:27:12;103075.34;;;-2.77;100.00
56928;BME280;60850;52.502;13.426;2022-12-18T10:29:41;103075.22;;;-3.18;100.00
56928;BME280;60850;52.502;13.426;2022-12-18T10:32:13;103073.19;;;-3.48;100.00
56928;BME280;60850;52.502;13.426;2022-12-18T10:34:44;103080.72;;;-3.40;100.00
56928;BME280;60850;52.502;13.426;2022-12-18T10:37:15;103071.91;;;-3.42;100.00
56928;BME280;60850;52.502;13.426;2022-12-18T10:39:44;103063.00;;;-3.19;100.00
56928;BME280;60850;52.502;13.426;2022-12-18T10:42:16;103064.00;;;-3.04;100.00
56928;BME280;60850;52.502;13.426;2022-12-18T10:44:43;103059.00;;;-2.74;100.00
56928;BME280;60850;52.502;13.426;2022-12-18T10:47:14;103051.03;;;-2.62;100.00
56928;BME280;60850;52.502;13.426;2022-12-18T10:49:47;103044.44;;;-2.70;100.00
56928;BME280;60850;52.502;13.426;2022-12-18T10:52:17;103042.44;;;-2.74;100.00
56928;BME280;60850;52.502;13.426;2022-12-18T10:54:51;103045.25;;;-3.11;100.00
56928;BME280;60850;52.502;13.426;2022-12-18T10:57:34;103035.94;;;-2.81;100.00
56928;BME280;60850;52.502;13.426;2022-12-18T11:00:21;103032.41;;;-2.82;100.00
56928;BME280;60850;52.502;13.426;2022-12-18T11:02:49;103032.19;;;-2.85;100.00
56928;BME280;60850;52.502;13.426;2022-12-18T11:05:28;103030.31;;;-2.87;100.00
56928;BME280;60850;52.502;13.426;2022-12-18T11:07:56;103026.16;;;-2.70;100.00
56928;BME280;60850;52.502;13.426;2022-12-18T11:10:28;103033.59;;;-2.77;100.00
56928;BME280;60850;52.502;13.426;2022-12-18T11:12:56;103030.81;;;-2.93;100.00
56928;BME280;60850;52.502;13.426;2022-12-18T11:15:27;103023.56;;;-3.10;100.00
56928;BME280;60850;52.502;13.426;2022-12-18T11:17:55;103028.19;;;-3.06;100.00
56928;BME280;60850;52.502;13.426;2022-12-18T11:20:33;103030.09;;;-2.90;100.00
56928;BME280;60850;52.502;13.426;2022-12-18T11:23:03;103025.91;;;-2.88;100.00
56928;BME280;60850;52.502;13.426;2022-12-18T11:25:33;103024.38;;;-2.98;100.00
56928;BME280;60850;52.502;13.426;2022-12-18T11:28:02;103023.56;;;-2.97;100.00
56928;BME280;60850;52.502;13.426;2022-12-18T11:30:31;103025.78;;;-2.90;100.00
56928;BME280;60850;52.502;13.426;2022-12-18T11:33:04;103024.09;;;-3.02;100.00
56928;BME280;60850;52.502;13.426;2022-12-18T11:35:37;103031.28;;;-2.85;100.00
56928;BME280;60850;52.502;13.426;2022-12-18T11:38:18;103034.81;;;-3.11;100.00
56928;BME280;60850;52.502;13.426;2022-12-18T11:40:54;103041.03;;;-3.22;100.00
56928;BME280;60850;52.502;13.426;2022-12-18T11:43:28;103020.34;;;-3.46;100.00
56928;BME280;60850;52.502;13.426;2022-12-18T11:46:02;103034.94;;;-3.61;100.00
56928;BME280;60850;52.502;13.426;2022-12-18T11:48:37;103040.78;;;-3.65;100.00
56928;BME280;60850;52.502;13.426;2022-12-18T11:51:11;103041.00;;;-3.87;100.00
56928;BME280;60850;52.502;13.426;2022-12-18T11:53:40;103040.31;;;-3.84;100.00
56928;BME280;60850;52.502;13.426;2022-12-18T11:56:26;103057.53;;;-3.87;100.00
56928;BME280;60850;52.502;13.426;2022-12-18T11:59:00;103067.69;;;-3.78;100.00
56928;BME280;60850;52.502;13.426;2022-12-18T12:01:44;103066.47;;;-3.58;100.00
56928;BME280;60850;52.502;13.426;2022-12-18T12:04:22;103055.94;;;-3.46;100.00
56928;BME280;60850;52.502;13.426;2022-12-18T12:07:00;103063.09;;;-3.30;100.00
56928;BME280;60850;52.502;13.426;2022-12-18T12:09:36;103060.47;;;-3.17;100.00
56928;BME280;60850;52.502;13.426;2022-12-18T12:12:22;103061.09;;;-3.21;100.00
56928;BME280;60850;52.502;13.426;2022-12-18T12:14:56;103076.13;;;-3.17;100.00
56928;BME280;60850;52.502;13.426;2022-12-18T12:17:35;103069.03;;;-3.07;100.00
56928;BME280;60850;52.502;13.426;2022-12-18T12:20:10;103065.13;;;-3.00;100.00
56928;BME280;60850;52.502;13.426;2022-12-18T12:22:44;103061.63;;;-3.00;100.00
56928;BME280;60850;52.502;13.426;2022-12-18T12:25:21;103057.38;;;-3.38;100.00
56928;BME280;60850;52.502;13.426;2022-12-18T12:28:05;103069.50;;;-3.25;100.00
56928;BME280;60850;52.502;13.426;2022-12-18T12:30:46;103064.03;;;-3.17;100.00
56928;BME280;60850;52.502;13.426;2022-12-18T12:33:24;103075.88;;;-2.95;100.00
56928;BME280;60850;52.502;13.426;2022-12-18T12:36:02;103079.28;;;-2.83;100.00
56928;BME280;60850;52.502;13.426;2022-12-18T12:38:36;103092.44;;;-3.08;100.00
56928;BME280;60850;52.502;13.426;2022-12-18T12:41:12;103086.72;;;-3.02;100.00
56928;BME280;60850;52.502;13.426;2022-12-18T12:43:57;103085.91;;;-3.01;100.00
56928;BME280;60850;52.502;13.426;2022-12-18T12:46:26;103082.78;;;-2.83;100.00